sensor_id;sensor_type;location;lat;lon;timestamp;P1;durP1;ratioP1;P2;durP2;ratioP2
67640;SDS011;54434;50.096;20.082;2022-10-16T00:01:47;24.90;;;14.80;;
67640;SDS011;54434;50.096;20.082;2022-10-16T00:04:23;24.30;;;14.50;;
67640;SDS011;54434;50.096;20.082;2022-10-16T00:06:58;27.50;;;15.10;;
67640;SDS011;54434;50.096;20.082;2022-10-16T00:09:35;24.30;;;15.30;;
67640;SDS011;54434;50.096;20.082;2022-10-16T00:12:19;27.30;;;16.10;;
67640;SDS011;54434;50.096;20.082;2022-10-16T00:14:55;25.20;;;15.10;;
67640;SDS011;54434;50.096;20.082;2022-10-16T00:17:31;25.70;;;15.40;;
67640;SDS011;54434;50.096;20.082;2022-10-16T00:20:10;24.70;;;15.50;;
67640;SDS011;54434;50.096;20.082;2022-10-16T00:22:46;28.00;;;15.50;;
67640;SDS011;54434;50.096;20.082;2022-10-16T00:25:21;26.20;;;15.90;;
67640;SDS011;54434;50.096;20.082;2022-10-16T00:27:57;24.20;;;15.10;;
67640;SDS011;54434;50.096;20.082;2022-10-16T00:30:34;27.90;;;15.20;;
67640;SDS011;54434;50.096;20.082;2022-10-16T00:33:13;26.80;;;15.60;;
67640;SDS011;54434;50.096;20.082;2022-10-16T00:35:49;23.70;;;15.20;;
67640;SDS011;54434;50.096;20.082;2022-10-16T00:38:24;24.80;;;15.70;;
67640;SDS011;54434;50.096;20.082;2022-10-16T00:41:00;26.90;;;15.50;;
67640;SDS011;54434;50.096;20.082;2022-10-16T00:43:41;31.30;;;16.20;;
67640;SDS011;54434;50.096;20.082;2022-10-16T00:46:23;24.90;;;15.70;;
67640;SDS011;54434;50.096;20.082;2022-10-16T00:49:08;26.50;;;15.60;;
67640;SDS011;54434;50.096;20.082;2022-10-16T00:51:47;25.90;;;16.20;;
67640;SDS011;54434;50.096;20.082;2022-10-16T00:54:27;24.40;;;15.20;;
67640;SDS011;54434;50.096;20.082;2022-10-16T00:57:07;27.40;;;15.00;;
67640;SDS011;54434;50.096;20.082;2022-10-16T00:59:43;26.60;;;15.20;;
67640;SDS011;54434;50.096;20.082;2022-10-16T01:02:19;26.30;;;15.00;;
67640;SDS011;54434;50.096;20.082;2022-10-16T01:04:56;26.90;;;15.60;;
67640;SDS011;54434;50.096;20.082;2022-10-16T01:07:44;28.80;;;16.60;;
67640;SDS011;54434;50.096;20.082;2022-10-16T01:10:34;27.50;;;15.50;;
67640;SDS011;54434;50.096;20.082;2022-10-16T01:13:17;25.40;;;15.70;;
67640;SDS011;54434;50.096;20.082;2022-10-16T01:16:05;28.10;;;15.80;;
67640;SDS011;54434;50.096;20.082;2022-10-16T01:18:49;29.80;;;16.40;;
67640;SDS011;54434;50.096;20.082;2022-10-16T01:21:35;24.80;;;15.80;;
67640;SDS011;54434;50.096;20.082;2022-10-16T01:24:31;26.50;;;15.90;;
67640;SDS011;54434;50.096;20.082;2022-10-16T01:27:15;25.00;;;14.90;;
67640;SDS011;54434;50.096;20.082;2022-10-16T01:30:00;30.30;;;17.10;;
67640;SDS011;54434;50.096;20.082;2022-10-16T01:32:45;26.00;;;15.90;;
67640;SDS011;54434;50.096;20.082;2022-10-16T01:35:27;26.60;;;15.30;;
67640;SDS011;54434;50.096;20.082;2022-10-16T01:38:10;28.40;;;16.10;;
67640;SDS011;54434;50.096;20.082;2022-10-16T01:40:52;27.70;;;15.70;;
67640;SDS011;54434;50.096;20.082;2022-10-16T01:43:36;29.30;;;16.00;;
67640;SDS011;54434;50.096;20.082;2022-10-16T01:46:18;26.30;;;16.10;;
67640;SDS011;54434;50.096;20.082;2022-10-16T01:48:56;25.90;;;15.70;;
67640;SDS011;54434;50.096;20.082;2022-10-16T01:51:36;25.80;;;16.20;;
67640;SDS011;54434;50.096;20.082;2022-10-16T01:54:15;25.60;;;15.70;;
67640;SDS011;54434;50.096;20.082;2022-10-16T01:56:54;24.10;;;15.70;;
67640;SDS011;54434;50.096;20.082;2022-10-16T01:59:35;26.30;;;15.60;;
67640;SDS011;54434;50.096;20.082;2022-10-16T02:02:16;25.40;;;15.30;;
67640;SDS011;54434;50.096;20.082;2022-10-16T02:04:57;30.30;;;15.70;;
67640;SDS011;54434;50.096;20.082;2022-10-16T02:07:37;25.40;;;16.10;;
67640;SDS011;54434;50.096;20.082;2022-10-16T02:10:15;26.90;;;15.90;;
67640;SDS011;54434;50.096;20.082;2022-10-16T02:12:57;27.70;;;15.70;;
67640;SDS011;54434;50.096;20.082;2022-10-16T02:15:37;25.60;;;15.90;;
67640;SDS011;54434;50.096;20.082;2022-10-16T02:18:13;25.10;;;15.40;;
67640;SDS011;54434;50.096;20.082;2022-10-16T02:20:55;24.90;;;15.50;;
67640;SDS011;54434;50.096;20.082;2022-10-16T02:23:41;27.20;;;15.40;;
67640;SDS011;54434;50.096;20.082;2022-10-16T02:26:30;29.40;;;16.50;;
67640;SDS011;54434;50.096;20.082;2022-10-16T02:29:14;27.50;;;16.40;;
67640;SDS011;54434;50.096;20.082;2022-10-16T02:31:55;28.70;;;16.40;;
67640;SDS011;54434;50.096;20.082;2022-10-16T02:34:35;25.70;;;16.00;;
67640;SDS011;54434;50.096;20.082;2022-10-16T02:37:14;25.60;;;16.20;;
67640;SDS011;54434;50.096;20.082;2022-10-16T02:39:52;26.80;;;15.60;;
67640;SDS011;54434;50.096;20.082;2022-10-16T02:42:34;24.30;;;14.90;;
67640;SDS011;54434;50.096;20.082;2022-10-16T02:45:13;26.50;;;15.80;;
67640;SDS011;54434;50.096;20.082;2022-10-16T02:47:49;24.50;;;15.30;;
67640;SDS011;54434;50.096;20.082;2022-10-16T02:50:25;23.90;;;14.30;;
67640;SDS011;54434;50.096;20.082;2022-10-16T02:53:01;25.90;;;15.20;;
67640;SDS011;54434;50.096;20.082;2022-10-16T02:55:37;27.00;;;14.80;;
67640;SDS011;54434;50.096;20.082;2022-10-16T02:58:13;24.30;;;14.10;;
67640;SDS011;54434;50.096;20.082;2022-10-16T03:00:49;24.30;;;15.10;;
67640;SDS011;54434;50.096;20.082;2022-10-16T03:03:25;26.10;;;15.00;;
67640;SDS011;54434;50.096;20.082;2022-10-16T03:06:01;24.40;;;15.10;;
67640;SDS011;54434;50.096;20.082;2022-10-16T03:08:36;22.90;;;15.10;;
67640;SDS011;54434;50.096;20.082;2022-10-16T03:11:12;28.20;;;15.70;;
67640;SDS011;54434;50.096;20.082;2022-10-16T03:13:48;24.30;;;15.10;;
67640;SDS011;54434;50.096;20.082;2022-10-16T03:16:24;27.00;;;14.80;;
67640;SDS011;54434;50.096;20.082;2022-10-16T03:19:00;29.20;;;15.00;;
67640;SDS011;54434;50.096;20.082;2022-10-16T03:21:36;25.10;;;15.10;;
67640;SDS011;54434;50.096;20.082;2022-10-16T03:24:12;27.10;;;15.70;;
67640;SDS011;54434;50.096;20.082;2022-10-16T03:26:48;25.00;;;15.30;;
67640;SDS011;54434;50.096;20.082;2022-10-16T03:29:24;26.10;;;15.00;;
67640;SDS011;54434;50.096;20.082;2022-10-16T03:32:02;25.30;;;14.90;;
67640;SDS011;54434;50.096;20.082;2022-10-16T03:34:38;23.50;;;14.20;;
67640;SDS011;54434;50.096;20.082;2022-10-16T03:37:15;25.40;;;15.30;;
67640;SDS011;54434;50.096;20.082;2022-10-16T03:39:51;26.90;;;15.10;;
67640;SDS011;54434;50.096;20.082;2022-10-16T03:42:27;27.70;;;14.70;;
67640;SDS011;54434;50.096;20.082;2022-10-16T03:45:04;21.70;;;14.40;;
67640;SDS011;54434;50.096;20.082;2022-10-16T03:47:41;21.80;;;14.60;;
67640;SDS011;54434;50.096;20.082;2022-10-16T03:50:17;26.10;;;15.10;;
67640;SDS011;54434;50.096;20.082;2022-10-16T03:52:53;22.80;;;15.10;;
67640;SDS011;54434;50.096;20.082;2022-10-16T03:55:29;24.20;;;15.00;;
67640;SDS011;54434;50.096;20.082;2022-10-16T03:58:04;24.40;;;14.70;;
67640;SDS011;54434;50.096;20.082;2022-10-16T04:00:43;24.10;;;14.90;;
67640;SDS011;54434;50.096;20.082;2022-10-16T04:03:20;25.50;;;15.20;;
67640;SDS011;54434;50.096;20.082;2022-10-16T04:05:56;24.10;;;15.20;;
67640;SDS011;54434;50.096;20.082;2022-10-16T04:08:32;23.00;;;14.50;;
67640;SDS011;54434;50.096;20.082;2022-10-16T04:11:09;22.90;;;14.10;;
67640;SDS011;54434;50.096;20.082;2022-10-16T04:13:45;23.90;;;15.20;;
67640;SDS011;54434;50.096;20.082;2022-10-16T04:16:21;22.90;;;15.00;;
67640;SDS011;54434;50.096;20.082;2022-10-16T04:18:57;22.00;;;15.10;;
67640;SDS011;54434;50.096;20.082;2022-10-16T04:21:34;23.00;;;14.30;;
67640;SDS011;54434;50.096;20.082;2022-10-16T04:24:10;23.20;;;15.40;;
67640;SDS011;54434;50.096;20.082;2022-10-16T04:26:46;24.90;;;15.70;;
67640;SDS011;54434;50.096;20.082;2022-10-16T04:29:22;25.00;;;15.60;;
67640;SDS011;54434;50.096;20.082;2022-10-16T04:31:58;24.30;;;14.70;;
67640;SDS011;54434;50.096;20.082;2022-10-16T04:34:34;24.40;;;14.70;;
67640;SDS011;54434;50.096;20.082;2022-10-16T04:37:10;23.40;;;15.40;;
67640;SDS011;54434;50.096;20.082;2022-10-16T04:39:46;23.80;;;14.70;;
67640;SDS011;54434;50.096;20.082;2022-10-16T04:42:22;21.50;;;14.20;;
67640;SDS011;54434;50.096;20.082;2022-10-16T04:44:58;23.90;;;15.40;;
67640;SDS011;54434;50.096;20.082;2022-10-16T04:47:34;25.10;;;15.60;;
67640;SDS011;54434;50.096;20.082;2022-10-16T04:50:11;21.60;;;14.50;;
67640;SDS011;54434;50.096;20.082;2022-10-16T04:53:04;22.60;;;13.60;;
67640;SDS011;54434;50.096;20.082;2022-10-16T04:55:40;24.50;;;14.30;;
67640;SDS011;54434;50.096;20.082;2022-10-16T04:58:16;24.70;;;14.30;;
67640;SDS011;54434;50.096;20.082;2022-10-16T05:00:52;24.40;;;14.50;;
67640;SDS011;54434;50.096;20.082;2022-10-16T05:03:29;23.70;;;15.80;;
67640;SDS011;54434;50.096;20.082;2022-10-16T05:06:06;22.00;;;15.00;;
67640;SDS011;54434;50.096;20.082;2022-10-16T05:08:42;27.60;;;15.40;;
67640;SDS011;54434;50.096;20.082;2022-10-16T05:11:18;20.10;;;13.60;;
67640;SDS011;54434;50.096;20.082;2022-10-16T05:13:53;21.30;;;13.90;;
67640;SDS011;54434;50.096;20.082;2022-10-16T05:16:30;21.40;;;13.60;;
67640;SDS011;54434;50.096;20.082;2022-10-16T05:19:06;21.80;;;14.20;;
67640;SDS011;54434;50.096;20.082;2022-10-16T05:22:00;22.20;;;14.20;;
67640;SDS011;54434;50.096;20.082;2022-10-16T05:24:36;22.90;;;13.70;;
67640;SDS011;54434;50.096;20.082;2022-10-16T05:27:12;22.10;;;14.40;;
67640;SDS011;54434;50.096;20.082;2022-10-16T05:29:51;21.50;;;14.30;;
67640;SDS011;54434;50.096;20.082;2022-10-16T05:32:27;23.90;;;14.10;;
67640;SDS011;54434;50.096;20.082;2022-10-16T05:35:04;21.60;;;14.60;;
67640;SDS011;54434;50.096;20.082;2022-10-16T05:37:44;23.70;;;14.80;;
67640;SDS011;54434;50.096;20.082;2022-10-16T05:40:21;24.80;;;14.80;;
67640;SDS011;54434;50.096;20.082;2022-10-16T05:42:58;23.10;;;13.30;;
67640;SDS011;54434;50.096;20.082;2022-10-16T05:45:34;22.30;;;13.40;;
67640;SDS011;54434;50.096;20.082;2022-10-16T05:48:10;21.50;;;14.10;;
67640;SDS011;54434;50.096;20.082;2022-10-16T05:50:46;24.30;;;13.70;;
67640;SDS011;54434;50.096;20.082;2022-10-16T05:53:22;20.50;;;13.00;;
67640;SDS011;54434;50.096;20.082;2022-10-16T05:55:59;26.70;;;13.40;;
67640;SDS011;54434;50.096;20.082;2022-10-16T05:58:38;23.80;;;14.50;;
67640;SDS011;54434;50.096;20.082;2022-10-16T06:01:16;23.30;;;14.10;;
67640;SDS011;54434;50.096;20.082;2022-10-16T06:03:54;24.00;;;14.30;;
67640;SDS011;54434;50.096;20.082;2022-10-16T06:06:30;20.50;;;13.50;;
67640;SDS011;54434;50.096;20.082;2022-10-16T06:09:06;22.80;;;14.30;;
67640;SDS011;54434;50.096;20.082;2022-10-16T06:11:43;21.80;;;13.10;;
67640;SDS011;54434;50.096;20.082;2022-10-16T06:14:19;18.70;;;12.80;;
67640;SDS011;54434;50.096;20.082;2022-10-16T06:16:55;21.10;;;13.50;;
67640;SDS011;54434;50.096;20.082;2022-10-16T06:19:31;22.50;;;13.10;;
67640;SDS011;54434;50.096;20.082;2022-10-16T06:22:07;25.00;;;13.40;;
67640;SDS011;54434;50.096;20.082;2022-10-16T06:24:43;23.60;;;14.00;;
67640;SDS011;54434;50.096;20.082;2022-10-16T06:27:20;23.40;;;13.20;;
67640;SDS011;54434;50.096;20.082;2022-10-16T06:29:56;24.70;;;15.20;;
67640;SDS011;54434;50.096;20.082;2022-10-16T06:32:32;22.70;;;14.70;;
67640;SDS011;54434;50.096;20.082;2022-10-16T06:35:09;20.60;;;14.10;;
67640;SDS011;54434;50.096;20.082;2022-10-16T06:37:44;26.80;;;15.80;;
67640;SDS011;54434;50.096;20.082;2022-10-16T06:40:20;27.80;;;16.30;;
67640;SDS011;54434;50.096;20.082;2022-10-16T06:42:58;28.60;;;18.00;;
67640;SDS011;54434;50.096;20.082;2022-10-16T06:45:34;25.90;;;15.90;;
67640;SDS011;54434;50.096;20.082;2022-10-16T06:48:10;25.70;;;16.10;;
67640;SDS011;54434;50.096;20.082;2022-10-16T06:50:56;25.10;;;16.40;;
67640;SDS011;54434;50.096;20.082;2022-10-16T06:53:35;24.90;;;15.60;;
67640;SDS011;54434;50.096;20.082;2022-10-16T06:56:34;20.50;;;14.00;;
67640;SDS011;54434;50.096;20.082;2022-10-16T06:59:10;21.10;;;14.00;;
67640;SDS011;54434;50.096;20.082;2022-10-16T07:01:46;22.10;;;14.40;;
67640;SDS011;54434;50.096;20.082;2022-10-16T07:04:22;20.20;;;14.50;;
67640;SDS011;54434;50.096;20.082;2022-10-16T07:06:59;19.90;;;13.50;;
67640;SDS011;54434;50.096;20.082;2022-10-16T07:09:41;18.70;;;12.70;;
67640;SDS011;54434;50.096;20.082;2022-10-16T07:12:17;21.30;;;12.60;;
67640;SDS011;54434;50.096;20.082;2022-10-16T07:14:53;20.30;;;12.50;;
67640;SDS011;54434;50.096;20.082;2022-10-16T07:17:29;22.80;;;11.90;;
67640;SDS011;54434;50.096;20.082;2022-10-16T07:20:06;17.90;;;12.30;;
67640;SDS011;54434;50.096;20.082;2022-10-16T07:22:43;21.60;;;12.90;;
67640;SDS011;54434;50.096;20.082;2022-10-16T07:25:19;19.20;;;12.00;;
67640;SDS011;54434;50.096;20.082;2022-10-16T07:27:54;19.70;;;12.10;;
67640;SDS011;54434;50.096;20.082;2022-10-16T07:30:30;17.70;;;11.10;;
67640;SDS011;54434;50.096;20.082;2022-10-16T07:33:08;14.60;;;9.20;;
67640;SDS011;54434;50.096;20.082;2022-10-16T07:35:52;16.80;;;8.50;;
67640;SDS011;54434;50.096;20.082;2022-10-16T07:38:29;15.10;;;8.10;;
67640;SDS011;54434;50.096;20.082;2022-10-16T07:41:07;14.80;;;7.00;;
67640;SDS011;54434;50.096;20.082;2022-10-16T07:43:48;12.50;;;6.70;;
67640;SDS011;54434;50.096;20.082;2022-10-16T07:46:25;10.60;;;6.40;;
67640;SDS011;54434;50.096;20.082;2022-10-16T07:49:01;9.10;;;6.40;;
67640;SDS011;54434;50.096;20.082;2022-10-16T07:51:37;10.30;;;6.20;;
67640;SDS011;54434;50.096;20.082;2022-10-16T07:54:13;12.40;;;6.70;;
67640;SDS011;54434;50.096;20.082;2022-10-16T07:56:49;11.50;;;6.30;;
67640;SDS011;54434;50.096;20.082;2022-10-16T07:59:25;9.60;;;6.30;;
67640;SDS011;54434;50.096;20.082;2022-10-16T08:02:01;13.10;;;7.90;;
67640;SDS011;54434;50.096;20.082;2022-10-16T08:04:37;9.30;;;6.20;;
67640;SDS011;54434;50.096;20.082;2022-10-16T08:07:12;45.20;;;25.30;;
67640;SDS011;54434;50.096;20.082;2022-10-16T08:09:51;22.00;;;14.00;;
67640;SDS011;54434;50.096;20.082;2022-10-16T08:12:29;11.00;;;6.80;;
67640;SDS011;54434;50.096;20.082;2022-10-16T08:15:07;10.00;;;6.30;;
67640;SDS011;54434;50.096;20.082;2022-10-16T08:17:45;11.10;;;6.50;;
67640;SDS011;54434;50.096;20.082;2022-10-16T08:20:33;10.10;;;6.70;;
67640;SDS011;54434;50.096;20.082;2022-10-16T08:23:10;11.10;;;6.60;;
67640;SDS011;54434;50.096;20.082;2022-10-16T08:25:46;10.00;;;6.30;;
67640;SDS011;54434;50.096;20.082;2022-10-16T08:28:22;89.40;;;59.40;;
67640;SDS011;54434;50.096;20.082;2022-10-16T08:31:06;15.60;;;9.80;;
67640;SDS011;54434;50.096;20.082;2022-10-16T08:33:45;10.00;;;6.80;;
67640;SDS011;54434;50.096;20.082;2022-10-16T08:36:21;13.90;;;6.80;;
67640;SDS011;54434;50.096;20.082;2022-10-16T08:38:57;12.90;;;6.90;;
67640;SDS011;54434;50.096;20.082;2022-10-16T08:42:12;10.50;;;6.80;;
67640;SDS011;54434;50.096;20.082;2022-10-16T08:45:23;12.10;;;7.50;;
67640;SDS011;54434;50.096;20.082;2022-10-16T08:48:21;10.90;;;7.30;;
67640;SDS011;54434;50.096;20.082;2022-10-16T08:51:04;13.00;;;7.10;;
67640;SDS011;54434;50.096;20.082;2022-10-16T08:53:46;10.60;;;7.00;;
67640;SDS011;54434;50.096;20.082;2022-10-16T08:56:27;11.50;;;7.60;;
67640;SDS011;54434;50.096;20.082;2022-10-16T08:59:03;13.60;;;7.70;;
67640;SDS011;54434;50.096;20.082;2022-10-16T09:04:53;11.70;;;7.30;;
67640;SDS011;54434;50.096;20.082;2022-10-16T09:07:45;11.00;;;6.70;;
67640;SDS011;54434;50.096;20.082;2022-10-16T09:10:41;9.80;;;7.10;;
67640;SDS011;54434;50.096;20.082;2022-10-16T09:13:28;9.70;;;6.70;;
67640;SDS011;54434;50.096;20.082;2022-10-16T09:16:20;12.20;;;8.20;;
67640;SDS011;54434;50.096;20.082;2022-10-16T09:19:12;10.00;;;6.40;;
67640;SDS011;54434;50.096;20.082;2022-10-16T09:21:53;9.30;;;6.70;;
67640;SDS011;54434;50.096;20.082;2022-10-16T09:24:31;9.80;;;6.10;;
67640;SDS011;54434;50.096;20.082;2022-10-16T09:27:11;11.60;;;7.10;;
67640;SDS011;54434;50.096;20.082;2022-10-16T09:29:48;9.00;;;6.10;;
67640;SDS011;54434;50.096;20.082;2022-10-16T09:32:32;11.30;;;7.00;;
67640;SDS011;54434;50.096;20.082;2022-10-16T09:35:16;11.60;;;6.40;;
67640;SDS011;54434;50.096;20.082;2022-10-16T09:37:55;10.60;;;6.00;;
67640;SDS011;54434;50.096;20.082;2022-10-16T09:40:34;10.50;;;6.10;;
67640;SDS011;54434;50.096;20.082;2022-10-16T09:43:23;11.50;;;6.20;;
67640;SDS011;54434;50.096;20.082;2022-10-16T09:46:05;10.20;;;6.40;;
67640;SDS011;54434;50.096;20.082;2022-10-16T09:48:50;12.30;;;7.20;;
67640;SDS011;54434;50.096;20.082;2022-10-16T09:51:31;12.00;;;6.60;;
67640;SDS011;54434;50.096;20.082;2022-10-16T09:54:18;11.80;;;6.10;;
67640;SDS011;54434;50.096;20.082;2022-10-16T09:57:05;11.60;;;7.00;;
67640;SDS011;54434;50.096;20.082;2022-10-16T09:59:51;12.60;;;7.00;;
67640;SDS011;54434;50.096;20.082;2022-10-16T10:02:33;10.60;;;6.10;;
67640;SDS011;54434;50.096;20.082;2022-10-16T10:05:22;9.20;;;6.00;;
67640;SDS011;54434;50.096;20.082;2022-10-16T10:08:02;8.80;;;6.00;;
67640;SDS011;54434;50.096;20.082;2022-10-16T10:10:43;12.50;;;6.40;;
67640;SDS011;54434;50.096;20.082;2022-10-16T10:13:24;8.80;;;6.00;;
67640;SDS011;54434;50.096;20.082;2022-10-16T10:16:00;10.60;;;6.20;;
67640;SDS011;54434;50.096;20.082;2022-10-16T10:18:36;12.60;;;6.70;;
67640;SDS011;54434;50.096;20.082;2022-10-16T10:21:17;9.10;;;6.60;;
67640;SDS011;54434;50.096;20.082;2022-10-16T10:23:59;27.10;;;16.60;;
67640;SDS011;54434;50.096;20.082;2022-10-16T10:26:35;11.50;;;6.50;;
67640;SDS011;54434;50.096;20.082;2022-10-16T10:29:23;13.70;;;6.80;;
67640;SDS011;54434;50.096;20.082;2022-10-16T10:32:22;11.70;;;6.60;;
67640;SDS011;54434;50.096;20.082;2022-10-16T10:35:18;9.80;;;6.20;;
67640;SDS011;54434;50.096;20.082;2022-10-16T10:38:20;12.00;;;6.60;;
67640;SDS011;54434;50.096;20.082;2022-10-16T10:44:19;9.30;;;6.00;;
67640;SDS011;54434;50.096;20.082;2022-10-16T10:47:15;10.90;;;6.10;;
67640;SDS011;54434;50.096;20.082;2022-10-16T10:50:11;8.50;;;6.00;;
67640;SDS011;54434;50.096;20.082;2022-10-16T10:53:04;7.40;;;5.40;;
67640;SDS011;54434;50.096;20.082;2022-10-16T10:55:54;11.00;;;5.60;;
67640;SDS011;54434;50.096;20.082;2022-10-16T10:59:14;9.00;;;5.70;;
67640;SDS011;54434;50.096;20.082;2022-10-16T11:02:13;7.70;;;5.40;;
67640;SDS011;54434;50.096;20.082;2022-10-16T11:05:40;10.00;;;6.00;;
67640;SDS011;54434;50.096;20.082;2022-10-16T11:08:22;9.70;;;5.80;;
67640;SDS011;54434;50.096;20.082;2022-10-16T11:11:06;8.90;;;5.50;;
67640;SDS011;54434;50.096;20.082;2022-10-16T11:13:55;10.50;;;5.80;;
67640;SDS011;54434;50.096;20.082;2022-10-16T11:16:39;10.70;;;5.20;;
67640;SDS011;54434;50.096;20.082;2022-10-16T11:19:31;8.80;;;5.50;;
67640;SDS011;54434;50.096;20.082;2022-10-16T11:22:20;11.40;;;5.60;;
67640;SDS011;54434;50.096;20.082;2022-10-16T11:25:11;10.40;;;5.40;;
67640;SDS011;54434;50.096;20.082;2022-10-16T11:30:38;9.60;;;5.40;;
67640;SDS011;54434;50.096;20.082;2022-10-16T11:33:36;10.60;;;6.00;;
67640;SDS011;54434;50.096;20.082;2022-10-16T11:36:19;10.00;;;6.90;;
67640;SDS011;54434;50.096;20.082;2022-10-16T11:39:08;12.40;;;7.50;;
67640;SDS011;54434;50.096;20.082;2022-10-16T11:44:48;11.20;;;5.60;;
67640;SDS011;54434;50.096;20.082;2022-10-16T11:47:33;8.10;;;5.40;;
67640;SDS011;54434;50.096;20.082;2022-10-16T11:50:38;11.20;;;5.50;;
67640;SDS011;54434;50.096;20.082;2022-10-16T11:53:27;10.40;;;5.60;;
67640;SDS011;54434;50.096;20.082;2022-10-16T11:56:15;12.60;;;6.10;;
67640;SDS011;54434;50.096;20.082;2022-10-16T11:59:00;8.30;;;5.40;;
67640;SDS011;54434;50.096;20.082;2022-10-16T12:01:44;8.70;;;5.20;;
67640;SDS011;54434;50.096;20.082;2022-10-16T12:04:29;10.70;;;6.30;;
67640;SDS011;54434;50.096;20.082;2022-10-16T12:07:12;11.20;;;5.50;;
67640;SDS011;54434;50.096;20.082;2022-10-16T12:09:53;12.50;;;7.10;;
67640;SDS011;54434;50.096;20.082;2022-10-16T12:12:41;16.40;;;10.20;;
67640;SDS011;54434;50.096;20.082;2022-10-16T12:15:25;8.60;;;5.90;;
67640;SDS011;54434;50.096;20.082;2022-10-16T12:18:26;9.10;;;5.90;;
67640;SDS011;54434;50.096;20.082;2022-10-16T12:21:02;10.70;;;6.60;;
67640;SDS011;54434;50.096;20.082;2022-10-16T12:23:49;10.10;;;5.70;;
67640;SDS011;54434;50.096;20.082;2022-10-16T12:26:32;14.70;;;6.60;;
67640;SDS011;54434;50.096;20.082;2022-10-16T12:29:26;11.00;;;5.90;;
67640;SDS011;54434;50.096;20.082;2022-10-16T12:32:24;12.30;;;6.60;;
67640;SDS011;54434;50.096;20.082;2022-10-16T12:35:24;10.60;;;5.50;;
67640;SDS011;54434;50.096;20.082;2022-10-16T12:38:19;14.40;;;6.20;;
67640;SDS011;54434;50.096;20.082;2022-10-16T12:41:04;9.90;;;6.40;;
67640;SDS011;54434;50.096;20.082;2022-10-16T12:43:44;20.90;;;10.50;;
67640;SDS011;54434;50.096;20.082;2022-10-16T12:46:39;10.60;;;6.70;;
67640;SDS011;54434;50.096;20.082;2022-10-16T12:49:37;10.60;;;5.60;;
67640;SDS011;54434;50.096;20.082;2022-10-16T12:52:37;12.00;;;5.80;;
67640;SDS011;54434;50.096;20.082;2022-10-16T12:55:20;7.90;;;4.50;;
67640;SDS011;54434;50.096;20.082;2022-10-16T12:58:21;8.10;;;5.30;;
67640;SDS011;54434;50.096;20.082;2022-10-16T13:01:38;9.80;;;5.00;;
67640;SDS011;54434;50.096;20.082;2022-10-16T13:04:45;10.80;;;4.90;;
67640;SDS011;54434;50.096;20.082;2022-10-16T13:07:43;7.60;;;4.70;;
67640;SDS011;54434;50.096;20.082;2022-10-16T13:10:36;7.00;;;4.30;;
67640;SDS011;54434;50.096;20.082;2022-10-16T13:13:53;18.40;;;8.70;;
67640;SDS011;54434;50.096;20.082;2022-10-16T13:16:49;7.90;;;4.90;;
67640;SDS011;54434;50.096;20.082;2022-10-16T13:19:35;9.60;;;4.00;;
67640;SDS011;54434;50.096;20.082;2022-10-16T13:22:24;8.10;;;4.20;;
67640;SDS011;54434;50.096;20.082;2022-10-16T13:25:22;7.90;;;4.70;;
67640;SDS011;54434;50.096;20.082;2022-10-16T13:28:08;8.00;;;4.50;;
67640;SDS011;54434;50.096;20.082;2022-10-16T13:30:52;7.40;;;4.30;;
67640;SDS011;54434;50.096;20.082;2022-10-16T13:33:37;7.20;;;4.30;;
67640;SDS011;54434;50.096;20.082;2022-10-16T13:36:24;7.50;;;4.10;;
67640;SDS011;54434;50.096;20.082;2022-10-16T13:39:13;7.50;;;4.20;;
67640;SDS011;54434;50.096;20.082;2022-10-16T13:42:10;6.40;;;4.00;;
67640;SDS011;54434;50.096;20.082;2022-10-16T13:44:52;7.50;;;4.20;;
67640;SDS011;54434;50.096;20.082;2022-10-16T13:47:30;7.70;;;4.30;;
67640;SDS011;54434;50.096;20.082;2022-10-16T13:50:12;8.70;;;5.40;;
67640;SDS011;54434;50.096;20.082;2022-10-16T13:52:49;8.70;;;4.30;;
67640;SDS011;54434;50.096;20.082;2022-10-16T13:55:26;6.50;;;4.20;;
67640;SDS011;54434;50.096;20.082;2022-10-16T13:58:13;7.10;;;4.30;;
67640;SDS011;54434;50.096;20.082;2022-10-16T14:00:59;6.50;;;4.20;;
67640;SDS011;54434;50.096;20.082;2022-10-16T14:03:38;10.10;;;5.50;;
67640;SDS011;54434;50.096;20.082;2022-10-16T14:06:18;8.40;;;4.30;;
67640;SDS011;54434;50.096;20.082;2022-10-16T14:09:00;6.90;;;4.50;;
67640;SDS011;54434;50.096;20.082;2022-10-16T14:11:49;6.20;;;4.20;;
67640;SDS011;54434;50.096;20.082;2022-10-16T14:14:32;7.30;;;4.30;;
67640;SDS011;54434;50.096;20.082;2022-10-16T14:17:22;9.90;;;4.80;;
67640;SDS011;54434;50.096;20.082;2022-10-16T14:20:02;11.10;;;5.80;;
67640;SDS011;54434;50.096;20.082;2022-10-16T14:22:42;8.70;;;5.00;;
67640;SDS011;54434;50.096;20.082;2022-10-16T14:25:28;9.40;;;4.70;;
67640;SDS011;54434;50.096;20.082;2022-10-16T14:28:17;9.10;;;5.70;;
67640;SDS011;54434;50.096;20.082;2022-10-16T14:30:57;10.40;;;6.70;;
67640;SDS011;54434;50.096;20.082;2022-10-16T14:33:36;10.80;;;5.10;;
67640;SDS011;54434;50.096;20.082;2022-10-16T14:36:16;5.90;;;4.20;;
67640;SDS011;54434;50.096;20.082;2022-10-16T14:38:59;7.00;;;4.00;;
67640;SDS011;54434;50.096;20.082;2022-10-16T14:41:46;8.40;;;4.50;;
67640;SDS011;54434;50.096;20.082;2022-10-16T14:44:28;8.30;;;3.70;;
67640;SDS011;54434;50.096;20.082;2022-10-16T14:47:17;6.30;;;4.20;;
67640;SDS011;54434;50.096;20.082;2022-10-16T14:49:58;7.40;;;4.40;;
67640;SDS011;54434;50.096;20.082;2022-10-16T14:52:34;9.40;;;4.60;;
67640;SDS011;54434;50.096;20.082;2022-10-16T14:55:11;8.10;;;4.90;;
67640;SDS011;54434;50.096;20.082;2022-10-16T14:57:48;7.80;;;4.70;;
67640;SDS011;54434;50.096;20.082;2022-10-16T15:00:28;9.60;;;5.00;;
67640;SDS011;54434;50.096;20.082;2022-10-16T15:03:04;7.20;;;4.10;;
67640;SDS011;54434;50.096;20.082;2022-10-16T15:05:40;7.00;;;4.20;;
67640;SDS011;54434;50.096;20.082;2022-10-16T15:08:17;7.30;;;4.60;;
67640;SDS011;54434;50.096;20.082;2022-10-16T15:10:53;29.10;;;17.20;;
67640;SDS011;54434;50.096;20.082;2022-10-16T15:13:29;19.10;;;13.90;;
67640;SDS011;54434;50.096;20.082;2022-10-16T15:16:07;20.50;;;10.90;;
67640;SDS011;54434;50.096;20.082;2022-10-16T15:18:44;11.00;;;8.70;;
67640;SDS011;54434;50.096;20.082;2022-10-16T15:21:27;9.70;;;6.70;;
67640;SDS011;54434;50.096;20.082;2022-10-16T15:24:11;10.90;;;6.60;;
67640;SDS011;54434;50.096;20.082;2022-10-16T15:26:55;8.90;;;4.50;;
67640;SDS011;54434;50.096;20.082;2022-10-16T15:29:33;9.10;;;5.20;;
67640;SDS011;54434;50.096;20.082;2022-10-16T15:32:11;12.00;;;7.90;;
67640;SDS011;54434;50.096;20.082;2022-10-16T15:34:48;31.90;;;25.50;;
67640;SDS011;54434;50.096;20.082;2022-10-16T15:37:24;11.30;;;7.50;;
67640;SDS011;54434;50.096;20.082;2022-10-16T15:40:00;16.20;;;8.60;;
67640;SDS011;54434;50.096;20.082;2022-10-16T15:42:37;8.30;;;5.60;;
67640;SDS011;54434;50.096;20.082;2022-10-16T15:45:16;11.50;;;5.50;;
67640;SDS011;54434;50.096;20.082;2022-10-16T15:47:55;11.70;;;6.40;;
67640;SDS011;54434;50.096;20.082;2022-10-16T15:50:31;10.50;;;6.10;;
67640;SDS011;54434;50.096;20.082;2022-10-16T15:53:08;10.80;;;7.10;;
67640;SDS011;54434;50.096;20.082;2022-10-16T15:55:47;14.70;;;7.10;;